Rolla, MO

12:30 PM CDT on October 30, 2014 (GMT -0500)
Jefferson City Memorial | Change Station
CLOSE
Current Station
Airport
Location: Jefferson City,
Elevation: 548 ft
Nearby Weather Stations
Active Advisory: Freeze Warning

Elev 548 ft 38.59 °N, 92.16 °W | Updated 37 minutes ago

Mostly Cloudy
Mostly Cloudy
50 °F
Feels Like 50 °F
N
5
Wind Variable Wind from SE

Today
High -- | Low -- °F
--% Chance of Precip.
Yesterday
High -- | Low -- °F
Precip. -- in
7:30 AM 6:10 PM
Waxing Crescent, 46% visible
Pressure 30.06 in
Visibility 10.0 miles
Clouds Overcast 7500 ft
Dew Point 41 °F
Humidity 71%
Rainfall 0.01 in
Snow Depth Not available.
UV 1 out of 12
Pollen 1.80 out of 12
Air Quality Not available.
Flu Activity Not available.
METAR KJEF 301653Z 13004KT 10SM -RA OVC075 10/05 A3008 RMK AO2 RAE06B25 SLP178 P0001 T01000050

More Conditions Fewer Conditions

Pressure 30.06 in
Visibility 10.0 miles
Clouds Overcast 7500 ft
Dew Point 41 °F
Humidity 71%
Rainfall 0.01 in
Snow Depth Not available.
UV 1 out of 12
Pollen 1.80 out of 12
Air Quality Not available.
Flu Activity Not available.
METAR KJEF 301653Z 13004KT 10SM -RA OVC075 10/05 A3008 RMK AO2 RAE06B25 SLP178 P0001 T01000050

More Conditions Fewer Conditions

10-Day Weather Forecast

Almanac

Astronomy

Oct. 30, 2014 Rise Set
Actual Time
Civil Twilight
Nautical Twilight
Astronomical Twilight
Moon
Length of Visible Light
Length of Day
Tomorrow will be .
, % of the Moon is Illuminated

Today's Extremes

State Highs State Lows

Community

WunderPhotos

Upload Photos

1,766,409 photos uploaded!

WunderBlogs® & News

Nearby

Air Quality

  Air Quality AQ Index Pollutant
Not available.

Snow Depth

Station Depth Elevation

Earthquake Activity

City Distance Mag. Time & Date
Minimum magnitude displayed is 2.5.

Coastal Water Temperatures

Place Temperature

Nearby Weather Stations